Ittoqqortoormiit

KL  EN  DA
ASIAQ
Weather Now GREENLAND SURVEY
Updated [WGT/WGST] Temperature [°C] Wind [m/s] Air pressure [hPa] Relative humidity [%] Precipitation [mm]
Present Wind chill Speed Max
21.01 20:00-3,7-10,97,4 ⇗15,395772n/a
21.01 19:00-2,8-11,411,9 ⇗18,695768n/a
21.01 18:00-2,6-12,015,1 ⇗19,195769n/a
21.01 17:00-2,4-8,96,8 ⇗14,095869n/a
21.01 16:00-2,1-9,910,3 ⇗16,595968n/a
21.01 15:00-2,5-9,06,7 ⇗11,896171n/a
21.01 14:00-2,7-9,88,0 ⇑13,396276n/a
21.01 13:00-2,1-9,810,1 ⇗21,896371n/a
21.01 12:00-2,5-12,719,1 ⇑23,796384n/a
21.01 11:00-5,7-13,67,8 ⇒20,196666n/a
21.01 10:00-1,5-10,013,3 ⇑17,096677n/a
21.01 09:00-2,2-7,64,9 ⇑14,096876n/a
21.01 08:00-2,6-7,54,0 ⇖10,097095n/a
21.01 07:00-2,2-5,42,3 ⇐6,897192n/a
21.01 06:00-0,60,00,8 ⇐7,297278n/a
21.01 05:00-1,8-7,65,8 ⇐9,097490n/a
21.01 04:00-2,8-7,94,3 ⇐12,897690n/a
21.01 03:00-2,5-6,53,0 ⇐11,8978890,1
21.01 02:00-2,5-8,65,9 ⇐13,598090n/a
21.01 01:00-3,2-9,66,1 ⇐12,898391n/a
21.01 00:00-5,6-10,23,0 ⇐7,098592n/a
20.01 23:00-9,5-16,04,0 ⇐6,698884n/a
20.01 22:00-11,60,00,0 ⇓2,499081n/a
20.01 21:00-12,10,01,1 ⇙2,099178n/a
20.01 20:00-12,00,01,2 ⇓2,699371n/a
Position: (70.48444444444,-21.95111111111)

[Back]